Time;durP1;ratioP1;P1;durP2;ratioP2;P2;SDS_P1;SDS_P2;PMS_P1;PMS_P2;Temp;Humidity;BMP_temperature;BMP_pressure;BME280_temperature;BME280_humidity;BME280_pressure;Samples;Min_cycle;Max_cycle;Signal;HPM_P1;HPM_P2
2023/07/24 00:02:09;;;;;;;5.57;4.70;;;22.80;59.80;;;;;;5020323;28;20559;-69
2023/07/24 00:04:34;;;;;;;5.10;4.60;;;22.70;59.70;;;;;;5008574;28;20290;-69
2023/07/24 00:07:00;;;;;;;5.45;4.95;;;22.80;59.80;;;;;;5011973;28;20183;-69
2023/07/24 00:09:26;;;;;;;5.75;4.80;;;22.80;59.80;;;;;;5024109;28;20252;-69
2023/07/24 00:11:52;;;;;;;4.95;4.45;;;22.70;59.80;;;;;;5039200;28;20636;-69
2023/07/24 00:14:18;;;;;;;5.82;5.15;;;22.80;59.80;;;;;;5022675;28;20202;-69
2023/07/24 00:16:44;;;;;;;5.28;4.78;;;22.70;59.80;;;;;;5013953;28;20622;-69
2023/07/24 00:19:09;;;;;;;5.60;4.82;;;22.70;59.70;;;;;;5023645;28;20584;-69
2023/07/24 00:21:35;;;;;;;5.88;4.90;;;22.80;59.80;;;;;;5027810;28;20202;-69
2023/07/24 00:24:01;;;;;;;5.45;4.95;;;22.80;59.80;;;;;;5023357;28;20225;-69
2023/07/24 00:26:26;;;;;;;5.68;4.80;;;22.70;59.70;;;;;;5030196;28;20225;-70
2023/07/24 00:28:52;;;;;;;5.18;4.55;;;22.70;59.80;;;;;;5029636;28;20187;-69
2023/07/24 00:31:18;;;;;;;5.13;4.63;;;22.70;59.70;;;;;;5005867;28;20187;-69
2023/07/24 00:33:44;;;;;;;5.50;5.00;;;22.70;59.80;;;;;;4994044;28;20647;-70
2023/07/24 00:36:11;;;;;;;5.40;4.30;;;22.70;59.90;;;;;;5012620;28;20192;-69
2023/07/24 00:38:36;;;;;;;5.30;4.80;;;22.80;60.00;;;;;;4996952;28;20238;-70
2023/07/24 00:41:02;;;;;;;5.25;4.45;;;22.70;59.90;;;;;;5006597;28;20187;-68
2023/07/24 00:43:28;;;;;;;5.47;4.65;;;22.70;59.90;;;;;;5044988;28;20215;-69
2023/07/24 00:45:55;;;;;;;5.45;4.90;;;22.70;59.90;;;;;;5030123;28;20211;-69
2023/07/24 00:48:21;;;;;;;5.55;5.05;;;22.70;59.90;;;;;;5013635;28;20222;-69
2023/07/24 00:50:48;;;;;;;5.50;4.55;;;22.70;59.90;;;;;;5014070;28;20219;-70
2023/07/24 00:53:16;;;;;;;4.90;4.40;;;22.70;59.90;;;;;;4994291;28;20214;-70
2023/07/24 00:55:42;;;;;;;6.07;5.10;;;22.70;59.90;;;;;;5025142;28;20238;-70
2023/07/24 00:58:11;;;;;;;5.68;4.65;;;22.70;59.90;;;;;;5021319;28;20191;-69
2023/07/24 01:00:41;;;;;;;5.72;4.80;;;22.70;59.90;;;;;;5024071;28;20188;-70
2023/07/24 01:03:08;;;;;;;5.13;4.63;;;22.70;59.90;;;;;;5001961;28;20262;-68
2023/07/24 01:05:34;;;;;;;5.03;4.38;;;22.70;59.90;;;;;;5029812;28;20242;-69
2023/07/24 01:07:59;;;;;;;5.90;5.13;;;22.70;60.00;;;;;;5029164;28;20204;-69
2023/07/24 01:10:25;;;;;;;5.70;4.93;;;22.70;60.00;;;;;;5013741;28;20190;-69
2023/07/24 01:12:58;;;;;;;5.63;5.00;;;22.70;60.00;;;;;;5013525;28;20204;-69
2023/07/24 01:15:26;;;;;;;5.78;4.90;;;22.70;60.00;;;;;;5005767;28;20199;-69
2023/07/24 01:18:00;;;;;;;5.18;4.68;;;22.70;60.10;;;;;;5037125;28;20237;-70
2023/07/24 01:20:30;;;;;;;6.03;4.60;;;22.70;60.00;;;;;;5020936;28;20264;-69
2023/07/24 01:23:48;;;;;;;5.25;4.72;;;22.70;60.00;;;;;;5041689;28;20231;-70
2023/07/24 01:26:14;;;;;;;5.03;4.53;;;22.70;60.00;;;;;;4990218;28;20207;-70
2023/07/24 01:28:40;;;;;;;5.72;4.85;;;22.70;60.00;;;;;;5007406;28;20184;-69
2023/07/24 01:31:05;;;;;;;6.18;4.32;;;22.70;60.00;;;;;;4996696;28;20241;-70
2023/07/24 01:33:35;;;;;;;5.40;4.75;;;22.70;60.00;;;;;;5013221;28;20211;-69
2023/07/24 01:36:03;;;;;;;5.03;4.28;;;22.70;60.10;;;;;;5038252;28;20191;-70
2023/07/24 01:38:34;;;;;;;5.88;5.10;;;22.70;60.10;;;;;;5038005;28;20216;-70
2023/07/24 01:41:00;;;;;;;5.30;4.80;;;22.70;60.10;;;;;;5018172;28;20196;-69
2023/07/24 01:43:28;;;;;;;5.50;4.70;;;22.70;60.10;;;;;;5032805;28;20211;-68
2023/07/24 01:45:54;;;;;;;5.68;4.88;;;22.70;60.20;;;;;;5032744;28;20187;-70
2023/07/24 01:48:20;;;;;;;5.32;4.80;;;22.70;60.10;;;;;;5035521;28;20198;-69
2023/07/24 01:50:46;;;;;;;5.38;4.88;;;22.70;60.20;;;;;;5021811;28;20275;-70
2023/07/24 01:53:12;;;;;;;5.40;4.90;;;22.70;60.20;;;;;;5022576;28;20302;-69
2023/07/24 01:55:38;;;;;;;4.82;4.35;;;22.70;60.30;;;;;;5032670;28;20191;-70
2023/07/24 01:58:04;;;;;;;5.57;5.05;;;22.70;60.20;;;;;;5040223;28;20269;-69
2023/07/24 02:00:30;;;;;;;5.10;4.53;;;22.70;60.20;;;;;;5015947;28;20179;-69
2023/07/24 02:02:59;;;;;;;5.05;4.55;;;22.70;60.20;;;;;;5032603;28;20234;-69
2023/07/24 02:05:26;;;;;;;6.10;5.15;;;22.70;60.20;;;;;;5016051;28;20179;-69
2023/07/24 02:07:52;;;;;;;6.05;5.35;;;22.70;60.30;;;;;;5012922;28;20245;-69
2023/07/24 02:10:18;;;;;;;5.13;4.45;;;22.70;60.40;;;;;;5031501;28;20556;-69
2023/07/24 02:12:43;;;;;;;6.00;5.32;;;22.70;60.40;;;;;;5032475;28;20218;-69
2023/07/24 02:15:09;;;;;;;4.85;4.35;;;22.70;61.10;;;;;;5032237;28;20197;-69
2023/07/24 02:17:35;;;;;;;6.03;5.10;;;22.70;60.40;;;;;;5015478;28;20191;-69
2023/07/24 02:20:01;;;;;;;5.40;4.90;;;22.70;60.40;;;;;;5032284;28;20183;-69
2023/07/24 02:22:27;;;;;;;5.90;5.05;;;22.70;60.50;;;;;;5031697;28;20231;-69
2023/07/24 02:24:53;;;;;;;4.78;4.20;;;22.70;60.60;;;;;;5015351;28;20297;-70
2023/07/24 02:27:28;;;;;;;5.85;4.85;;;22.60;60.30;;;;;;5000461;28;20194;-70
2023/07/24 02:29:57;;;;;;;5.70;4.97;;;22.70;60.60;;;;;;5017185;28;20278;-69
2023/07/24 02:32:23;;;;;;;5.80;5.20;;;22.70;60.60;;;;;;5015280;28;20219;-69
2023/07/24 02:34:53;;;;;;;5.70;4.93;;;22.60;60.40;;;;;;5012282;28;20192;-69
2023/07/24 02:37:19;;;;;;;5.68;4.93;;;22.60;60.50;;;;;;5014907;28;20277;-69
2023/07/24 02:39:45;;;;;;;5.32;4.75;;;22.60;60.50;;;;;;5037369;28;20286;-68
2023/07/24 02:42:11;;;;;;;5.43;4.88;;;22.70;60.60;;;;;;5017489;28;20292;-70
2023/07/24 02:44:38;;;;;;;6.53;5.32;;;22.60;60.50;;;;;;5011776;28;20307;-69
2023/07/24 02:47:04;;;;;;;5.15;4.50;;;22.60;60.60;;;;;;5015014;28;20254;-69
2023/07/24 02:49:31;;;;;;;5.35;4.85;;;22.60;60.60;;;;;;5024450;28;20194;-69
2023/07/24 02:51:57;;;;;;;5.25;4.75;;;22.60;60.60;;;;;;5015184;28;20210;-68
2023/07/24 02:54:23;;;;;;;5.70;4.75;;;22.60;60.50;;;;;;5013886;28;20200;-69
2023/07/24 02:56:49;;;;;;;5.50;4.70;;;22.70;60.70;;;;;;5028261;28;20235;-70
2023/07/24 02:59:15;;;;;;;5.70;5.03;;;22.70;60.70;;;;;;5016417;28;20195;-69
2023/07/24 03:01:42;;;;;;;5.40;4.90;;;22.60;60.60;;;;;;5014792;28;20231;-69
2023/07/24 03:04:08;;;;;;;6.53;5.22;;;22.60;60.80;;;;;;5014588;28;20214;-69
2023/07/24 03:06:34;;;;;;;6.30;5.05;;;22.60;60.70;;;;;;5015061;28;20187;-69
2023/07/24 03:09:00;;;;;;;7.13;5.65;;;22.60;60.70;;;;;;5014928;28;20242;-69
2023/07/24 03:11:26;;;;;;;5.82;5.22;;;22.70;60.80;;;;;;5007093;28;20187;-69
2023/07/24 03:13:52;;;;;;;5.68;5.00;;;22.60;60.70;;;;;;5014805;28;20199;-69
2023/07/24 03:16:19;;;;;;;5.45;4.90;;;22.60;61.50;;;;;;5022839;28;20193;-68
2023/07/24 03:18:45;;;;;;;5.93;5.20;;;22.60;60.70;;;;;;5016210;28;20187;-69
2023/07/24 03:21:11;;;;;;;6.53;5.50;;;22.60;60.70;;;;;;5014120;28;20282;-70
2023/07/24 03:23:36;;;;;;;5.40;4.90;;;22.60;60.70;;;;;;5030863;28;20218;-69
2023/07/24 03:26:02;;;;;;;5.80;4.63;;;22.60;60.70;;;;;;5014872;28;20221;-69
2023/07/24 03:28:28;;;;;;;5.68;5.13;;;22.60;60.80;;;;;;5030521;28;20187;-68
2023/07/24 03:30:54;;;;;;;5.38;4.80;;;22.60;60.80;;;;;;5014762;28;20654;-69
2023/07/24 03:33:20;;;;;;;5.47;4.93;;;22.60;60.80;;;;;;5022109;28;20207;-68
2023/07/24 03:35:46;;;;;;;6.80;5.50;;;22.60;60.70;;;;;;5030886;28;20184;-69
2023/07/24 03:38:12;;;;;;;5.20;4.50;;;22.60;60.80;;;;;;5030144;28;20210;-69
2023/07/24 03:40:38;;;;;;;5.72;5.13;;;22.60;60.80;;;;;;5014414;28;20210;-69
2023/07/24 03:43:03;;;;;;;5.72;5.13;;;22.60;60.70;;;;;;5014013;28;20207;-69
2023/07/24 03:45:31;;;;;;;6.03;5.43;;;22.60;60.80;;;;;;5011931;28;20187;-69
2023/07/24 03:47:57;;;;;;;6.30;5.45;;;22.60;61.60;;;;;;5008965;28;20195;-69
2023/07/24 03:50:22;;;;;;;6.30;5.40;;;22.60;60.90;;;;;;5031750;28;20733;-69
2023/07/24 03:52:48;;;;;;;5.22;4.72;;;22.60;60.90;;;;;;5031720;28;20218;-69
2023/07/24 03:55:14;;;;;;;5.80;5.20;;;22.60;60.80;;;;;;5013993;28;20190;-68
2023/07/24 03:57:39;;;;;;;6.13;5.25;;;22.60;60.90;;;;;;5017678;28;20240;-69
2023/07/24 04:00:06;;;;;;;5.32;4.80;;;22.60;60.90;;;;;;5018776;28;20187;-69
2023/07/24 04:02:39;;;;;;;5.47;4.88;;;22.60;60.90;;;;;;5023432;28;20780;-69
2023/07/24 04:05:05;;;;;;;5.82;5.20;;;22.60;60.90;;;;;;5010501;28;20223;-69
2023/07/24 04:07:31;;;;;;;5.85;5.03;;;22.60;60.90;;;;;;5013736;28;20337;-69
2023/07/24 04:09:57;;;;;;;5.85;4.78;;;22.60;60.90;;;;;;5022269;28;20251;-69
2023/07/24 04:12:22;;;;;;;5.60;4.90;;;22.60;60.90;;;;;;5022150;28;20711;-69
2023/07/24 04:14:48;;;;;;;5.63;5.00;;;22.60;60.90;;;;;;5035234;28;20201;-69
2023/07/24 04:17:15;;;;;;;5.95;5.07;;;22.60;60.90;;;;;;5016940;28;20191;-69
2023/07/24 04:19:42;;;;;;;6.22;5.05;;;22.60;60.90;;;;;;5017437;28;20201;-70
2023/07/24 04:22:07;;;;;;;5.68;4.93;;;22.60;61.00;;;;;;5026168;28;20205;-69
2023/07/24 04:24:33;;;;;;;6.22;5.28;;;22.60;61.00;;;;;;5021152;28;20219;-70
2023/07/24 04:26:59;;;;;;;5.38;4.88;;;22.50;61.00;;;;;;5037963;28;20191;-71
2023/07/24 04:29:25;;;;;;;5.38;4.88;;;22.60;61.10;;;;;;5021965;28;20191;-71
2023/07/24 04:31:52;;;;;;;5.93;4.93;;;22.60;61.10;;;;;;5013922;28;20238;-71
2023/07/24 04:34:17;;;;;;;6.25;5.45;;;22.60;61.10;;;;;;5039715;28;20187;-70
2023/07/24 04:36:43;;;;;;;5.47;4.97;;;22.60;61.20;;;;;;5028591;28;20197;-71
2023/07/24 04:39:09;;;;;;;6.35;5.35;;;22.60;61.30;;;;;;5020970;28;20187;-71
2023/07/24 04:41:34;;;;;;;5.50;4.95;;;22.60;61.30;;;;;;5014304;28;20194;-71
2023/07/24 04:44:00;;;;;;;6.20;5.10;;;22.60;61.40;;;;;;5013719;28;20273;-72
2023/07/24 04:46:26;;;;;;;6.18;5.15;;;22.60;61.40;;;;;;5029991;28;20654;-69
2023/07/24 04:48:52;;;;;;;5.85;4.97;;;22.50;61.40;;;;;;5008642;28;20242;-70
2023/07/24 04:51:18;;;;;;;6.47;5.30;;;22.60;61.50;;;;;;5042397;22;20914;-66
2023/07/24 04:53:44;;;;;;;5.65;5.05;;;22.50;61.50;;;;;;5013765;28;20700;-67
2023/07/24 04:56:10;;;;;;;6.57;5.32;;;22.50;61.50;;;;;;5016912;28;20193;-66
2023/07/24 04:58:36;;;;;;;7.72;5.47;;;22.50;61.50;;;;;;5017969;28;20199;-66
2023/07/24 05:01:04;;;;;;;6.38;5.68;;;22.60;61.70;;;;;;5017070;28;20226;-66
2023/07/24 05:03:30;;;;;;;5.93;5.32;;;22.60;61.80;;;;;;5026194;28;20208;-69
2023/07/24 05:05:56;;;;;;;6.15;5.35;;;22.50;61.70;;;;;;5025221;28;20184;-69
2023/07/24 05:08:22;;;;;;;6.35;5.68;;;22.60;61.90;;;;;;5000282;28;20203;-69
2023/07/24 05:10:58;;;;;;;6.32;5.68;;;22.60;61.90;;;;;;5013496;28;20298;-69
2023/07/24 05:13:25;;;;;;;7.57;5.90;;;22.50;61.80;;;;;;4989703;28;20187;-69
2023/07/24 05:15:50;;;;;;;6.50;5.50;;;22.50;61.90;;;;;;5012032;28;20714;-68
2023/07/24 05:18:16;;;;;;;6.25;5.55;;;22.60;62.00;;;;;;5004811;28;20183;-69
2023/07/24 05:20:55;;;;;;;6.78;5.85;;;22.60;62.00;;;;;;4983017;28;20207;-69
2023/07/24 05:23:21;;;;;;;6.75;5.95;;;22.50;62.00;;;;;;5015753;28;20195;-69
2023/07/24 05:25:47;;;;;;;7.35;6.55;;;22.60;62.10;;;;;;5021162;28;20188;-69
2023/07/24 05:28:12;;;;;;;6.53;5.75;;;22.50;62.20;;;;;;4986898;28;20194;-68
2023/07/24 05:30:38;;;;;;;6.65;5.75;;;22.50;62.00;;;;;;4990241;28;20191;-69
2023/07/24 05:33:04;;;;;;;6.70;5.90;;;22.50;62.00;;;;;;5015380;28;20191;-69
2023/07/24 05:35:29;;;;;;;6.18;5.43;;;22.60;62.20;;;;;;5023688;28;20275;-69
2023/07/24 05:37:55;;;;;;;6.20;5.20;;;22.60;62.30;;;;;;5017745;28;20651;-69
2023/07/24 05:40:21;;;;;;;6.40;5.68;;;22.50;62.20;;;;;;4997677;28;20202;-68
2023/07/24 05:42:47;;;;;;;6.25;5.65;;;22.50;62.30;;;;;;5013582;28;20245;-69
2023/07/24 05:45:14;;;;;;;6.22;5.38;;;22.60;62.50;;;;;;5007841;28;20219;-68
2023/07/24 05:47:40;;;;;;;5.80;5.25;;;22.50;62.50;;;;;;5028941;28;20183;-69
2023/07/24 05:50:06;;;;;;;6.65;5.65;;;22.50;62.40;;;;;;4993133;28;20187;-68
2023/07/24 05:52:32;;;;;;;6.82;5.97;;;22.50;62.40;;;;;;5016255;28;20239;-69
2023/07/24 05:54:58;;;;;;;7.45;6.25;;;22.50;62.40;;;;;;4992420;28;20579;-68
2023/07/24 05:57:24;;;;;;;6.65;5.97;;;22.50;62.40;;;;;;5006311;28;20206;-68
2023/07/24 05:59:51;;;;;;;6.82;6.10;;;22.50;62.60;;;;;;5007146;28;20187;-69
2023/07/24 06:02:17;;;;;;;6.05;5.43;;;22.50;62.60;;;;;;5006906;28;20709;-68
2023/07/24 06:04:43;;;;;;;6.53;5.47;;;22.50;62.50;;;;;;4996038;28;20223;-69
2023/07/24 06:07:09;;;;;;;6.60;5.90;;;22.50;62.50;;;;;;5013537;28;20184;-69
2023/07/24 06:09:34;;;;;;;7.22;5.90;;;22.60;62.60;;;;;;5005722;28;20194;-69
2023/07/24 06:12:00;;;;;;;7.13;6.07;;;22.60;62.70;;;;;;4995742;28;20211;-68
2023/07/24 06:14:26;;;;;;;6.05;5.15;;;22.50;62.70;;;;;;5012625;28;20245;-68
2023/07/24 06:16:51;;;;;;;6.35;5.75;;;22.50;62.70;;;;;;5009796;28;20179;-69
2023/07/24 06:19:17;;;;;;;6.30;5.70;;;22.50;62.70;;;;;;5025772;28;20665;-68
2023/07/24 06:21:43;;;;;;;6.85;5.68;;;22.60;62.70;;;;;;5024931;28;20226;-69
2023/07/24 06:24:11;;;;;;;6.82;5.97;;;22.50;62.70;;;;;;4997344;28;20254;-68
2023/07/24 06:26:38;;;;;;;6.03;5.43;;;22.60;63.00;;;;;;5006197;28;20218;-69
2023/07/24 06:29:04;;;;;;;6.50;5.78;;;22.50;62.90;;;;;;5007334;28;20191;-68
2023/07/24 06:31:30;;;;;;;6.55;5.72;;;22.50;63.00;;;;;;5008413;28;20207;-69
2023/07/24 06:33:55;;;;;;;6.65;5.53;;;22.60;63.30;;;;;;4994300;28;20220;-69
2023/07/24 06:36:21;;;;;;;6.47;5.53;;;22.60;63.30;;;;;;5005905;28;20191;-69
2023/07/24 06:38:47;;;;;;;6.47;5.72;;;22.60;63.20;;;;;;4991639;28;20196;-69
2023/07/24 06:41:15;;;;;;;6.22;5.63;;;22.50;63.40;;;;;;4990869;28;20326;-68
2023/07/24 06:43:42;;;;;;;6.57;5.88;;;22.50;63.50;;;;;;5005790;28;20291;-70
2023/07/24 06:46:08;;;;;;;6.88;5.68;;;22.50;63.50;;;;;;4989650;28;20184;-68
2023/07/24 06:48:34;;;;;;;7.07;5.72;;;22.50;63.60;;;;;;4999636;28;20190;-69
2023/07/24 06:50:59;;;;;;;7.07;5.55;;;22.50;63.40;;;;;;5002078;28;20208;-68
2023/07/24 06:53:25;;;;;;;6.07;5.47;;;22.50;63.60;;;;;;4989605;28;20188;-68
2023/07/24 06:55:51;;;;;;;6.72;5.93;;;22.50;63.60;;;;;;5019045;28;20176;-69
2023/07/24 06:58:17;;;;;;;6.55;5.85;;;22.60;63.40;;;;;;5008770;28;20187;-69
2023/07/24 07:00:43;;;;;;;6.97;5.95;;;22.60;63.40;;;;;;4995040;28;20208;-68
2023/07/24 07:03:09;;;;;;;6.30;5.43;;;22.50;63.30;;;;;;5014247;28;20226;-68
2023/07/24 07:05:34;;;;;;;6.70;6.00;;;22.50;63.50;;;;;;4993823;28;20212;-69
2023/07/24 07:08:00;;;;;;;7.07;5.88;;;22.50;63.50;;;;;;5002740;28;20187;-69
2023/07/24 07:10:26;;;;;;;6.45;5.60;;;22.50;63.60;;;;;;4988735;28;20349;-69
2023/07/24 07:12:52;;;;;;;6.40;5.68;;;22.60;63.70;;;;;;5010291;28;20201;-69
2023/07/24 07:15:17;;;;;;;6.50;5.22;;;22.60;63.70;;;;;;4996781;28;20191;-68
2023/07/24 07:17:43;;;;;;;6.68;5.03;;;22.50;63.60;;;;;;5026907;28;20196;-69
2023/07/24 07:20:09;;;;;;;6.05;5.25;;;22.60;63.70;;;;;;4994315;28;20191;-69
2023/07/24 07:22:35;;;;;;;5.80;5.20;;;22.50;63.60;;;;;;4995375;28;20214;-68
2023/07/24 07:25:01;;;;;;;6.13;5.47;;;22.50;63.60;;;;;;4989042;28;20218;-69
2023/07/24 07:27:26;;;;;;;5.90;5.22;;;22.50;63.60;;;;;;5022149;28;20206;-70
2023/07/24 07:29:52;;;;;;;7.25;5.82;;;22.60;64.40;;;;;;5018913;28;20627;-70
2023/07/24 07:32:18;;;;;;;6.78;5.72;;;22.50;63.70;;;;;;5008239;28;20208;-69
2023/07/24 07:34:43;;;;;;;6.88;5.60;;;22.60;63.70;;;;;;5008434;28;20199;-69
2023/07/24 07:37:09;;;;;;;6.85;5.43;;;22.50;63.60;;;;;;5005122;28;20183;-69
2023/07/24 07:39:36;;;;;;;5.85;5.20;;;22.50;63.60;;;;;;5009985;28;20346;-68
2023/07/24 07:42:01;;;;;;;5.80;5.20;;;22.50;63.50;;;;;;5025884;28;20196;-69
2023/07/24 07:44:27;;;;;;;6.47;5.60;;;22.50;63.90;;;;;;4977622;28;20211;-69
2023/07/24 07:46:53;;;;;;;5.40;4.88;;;22.60;63.80;;;;;;4994934;28;20192;-71
2023/07/24 07:49:18;;;;;;;5.90;5.30;;;22.60;63.90;;;;;;4982637;28;20275;-69
2023/07/24 07:51:44;;;;;;;5.88;5.28;;;22.50;63.60;;;;;;5028744;28;20211;-69
2023/07/24 07:54:10;;;;;;;6.80;6.00;;;22.50;63.70;;;;;;5008251;28;20690;-70
2023/07/24 07:56:36;;;;;;;6.03;5.43;;;22.50;63.80;;;;;;4999777;28;20195;-68
2023/07/24 07:59:01;;;;;;;6.28;5.60;;;22.50;63.70;;;;;;4988940;28;20730;-69
2023/07/24 08:01:27;;;;;;;6.78;5.28;;;22.50;63.70;;;;;;4997976;28;20212;-70
2023/07/24 08:03:53;;;;;;;7.28;5.38;;;22.60;63.80;;;;;;5027260;28;20223;-70
2023/07/24 08:06:18;;;;;;;6.10;5.30;;;22.60;63.70;;;;;;5001829;28;20192;-70
2023/07/24 08:08:44;;;;;;;6.13;5.30;;;22.60;63.60;;;;;;4994122;28;20661;-69
2023/07/24 08:11:10;;;;;;;6.18;5.40;;;22.60;63.70;;;;;;5008669;28;20254;-71
2023/07/24 08:13:36;;;;;;;6.70;5.60;;;22.60;63.70;;;;;;5009740;28;20219;-69
2023/07/24 08:16:03;;;;;;;6.22;5.07;;;22.70;63.70;;;;;;4995527;28;20191;-69
2023/07/24 08:18:32;;;;;;;5.22;4.72;;;22.60;63.70;;;;;;4992992;28;20184;-69
2023/07/24 08:20:58;;;;;;;4.95;4.45;;;22.60;63.70;;;;;;5012328;28;20216;-70
2023/07/24 08:23:23;;;;;;;5.63;5.10;;;22.70;63.80;;;;;;5006975;28;20184;-69
2023/07/24 08:25:55;;;;;;;5.35;4.85;;;22.70;63.80;;;;;;5026245;28;20199;-69
2023/07/24 08:28:21;;;;;;;5.88;4.90;;;22.70;63.80;;;;;;5009898;28;20241;-69
2023/07/24 08:31:01;;;;;;;5.38;4.88;;;22.70;63.80;;;;;;4999442;28;20211;-70
2023/07/24 08:33:28;;;;;;;5.45;4.78;;;22.70;63.80;;;;;;5006105;28;20186;-69
2023/07/24 08:36:06;;;;;;;5.35;4.85;;;22.70;63.70;;;;;;5011875;28;20199;-70
2023/07/24 08:38:33;;;;;;;5.70;5.10;;;22.70;63.80;;;;;;4998275;28;20198;-69
2023/07/24 08:41:04;;;;;;;5.68;5.00;;;22.70;63.60;;;;;;4996275;28;20199;-69
2023/07/24 08:43:31;;;;;;;5.72;4.90;;;22.70;63.80;;;;;;4988324;28;20195;-69
2023/07/24 08:46:02;;;;;;;5.78;4.53;;;22.70;64.40;;;;;;4992402;28;20202;-69
2023/07/24 08:48:35;;;;;;;5.57;4.70;;;22.70;63.70;;;;;;4996641;28;20191;-70
2023/07/24 08:51:11;;;;;;;6.72;5.18;;;22.70;63.80;;;;;;5007185;28;20305;-69
2023/07/24 08:53:42;;;;;;;5.57;4.97;;;22.70;63.70;;;;;;4990594;28;20205;-70
2023/07/24 08:56:10;;;;;;;5.90;4.93;;;22.70;63.80;;;;;;5008305;28;20196;-70
2023/07/24 08:58:36;;;;;;;5.53;4.72;;;22.70;63.80;;;;;;5024112;28;20195;-69
2023/07/24 09:01:04;;;;;;;5.30;4.60;;;22.70;64.60;;;;;;5031065;28;20223;-69
2023/07/24 09:03:32;;;;;;;5.40;4.53;;;22.70;63.80;;;;;;4998966;28;20190;-69
2023/07/24 09:05:58;;;;;;;5.38;4.68;;;22.70;63.80;;;;;;5008987;28;20199;-69
2023/07/24 09:08:35;;;;;;;6.28;5.15;;;22.70;64.60;;;;;;5004453;28;20185;-69
2023/07/24 09:11:03;;;;;;;5.63;4.80;;;22.70;63.80;;;;;;5004676;28;20218;-69
2023/07/24 09:13:30;;;;;;;5.05;4.00;;;22.70;63.80;;;;;;5027769;28;20214;-69
2023/07/24 09:15:56;;;;;;;5.25;4.63;;;22.70;63.80;;;;;;5005969;28;20192;-69
2023/07/24 09:18:23;;;;;;;5.22;4.25;;;22.70;63.80;;;;;;5011576;28;20195;-68
2023/07/24 09:20:49;;;;;;;5.22;4.50;;;22.70;63.80;;;;;;4995577;28;20218;-68
2023/07/24 09:23:15;;;;;;;5.05;4.43;;;22.70;63.90;;;;;;4997506;28;20187;-69
2023/07/24 09:25:44;;;;;;;5.38;4.65;;;22.70;63.80;;;;;;5014851;28;20293;-68
2023/07/24 09:28:16;;;;;;;5.68;4.28;;;22.70;63.80;;;;;;5021188;28;20238;-69
2023/07/24 09:30:52;;;;;;;4.95;4.32;;;22.70;63.80;;;;;;5005329;28;20184;-69
2023/07/24 09:33:18;;;;;;;4.97;4.47;;;22.70;63.80;;;;;;4984343;28;20666;-69
2023/07/24 09:35:43;;;;;;;5.07;4.38;;;22.70;63.80;;;;;;5010853;28;20194;-70
2023/07/24 09:38:11;;;;;;;6.65;4.35;;;22.70;63.80;;;;;;5030401;28;20192;-69
2023/07/24 09:40:47;;;;;;;6.28;4.78;;;22.70;63.70;;;;;;5013309;28;20191;-69
2023/07/24 09:43:24;;;;;;;4.97;4.47;;;22.70;63.90;;;;;;5015981;28;20218;-69
2023/07/24 09:45:52;;;;;;;4.95;4.40;;;22.70;64.20;;;;;;4999464;28;20204;-69
2023/07/24 09:48:19;;;;;;;4.90;4.38;;;22.70;64.30;;;;;;5000052;28;20184;-69
2023/07/24 09:50:48;;;;;;;5.10;4.20;;;22.70;64.60;;;;;;5002615;28;20350;-70
2023/07/24 09:53:36;;;;;;;5.47;4.40;;;22.70;64.60;;;;;;5003859;28;20568;-69
2023/07/24 09:56:05;;;;;;;4.40;4.00;;;22.70;64.90;;;;;;5011693;28;20269;-69
2023/07/24 09:58:37;;;;;;;5.07;4.57;;;22.70;65.00;;;;;;5009839;28;20195;-69
2023/07/24 10:01:06;;;;;;;4.80;4.28;;;22.70;64.80;;;;;;5027316;28;20211;-69
2023/07/24 10:03:40;;;;;;;4.22;3.83;;;22.70;64.80;;;;;;5031310;28;20565;-69
2023/07/24 10:06:10;;;;;;;4.28;3.88;;;22.70;64.80;;;;;;5028583;28;20183;-69
2023/07/24 10:08:36;;;;;;;4.63;4.13;;;22.70;64.80;;;;;;4987079;28;20187;-69
2023/07/24 10:11:02;;;;;;;5.80;4.50;;;22.70;64.80;;;;;;5031748;28;20207;-69
2023/07/24 10:13:29;;;;;;;5.20;4.70;;;22.70;64.80;;;;;;5014212;28;20183;-68
2023/07/24 10:15:56;;;;;;;4.72;4.22;;;22.70;64.90;;;;;;5026949;28;20249;-70
2023/07/24 10:18:28;;;;;;;4.68;4.03;;;22.70;65.10;;;;;;4979942;28;20191;-69
2023/07/24 10:21:04;;;;;;;4.85;4.35;;;22.70;65.30;;;;;;4996677;28;20250;-68
2023/07/24 10:23:30;;;;;;;4.68;4.15;;;22.70;65.20;;;;;;5030006;28;20253;-69
2023/07/24 10:26:03;;;;;;;5.35;4.50;;;22.70;65.20;;;;;;4991202;28;20195;-69
2023/07/24 10:28:38;;;;;;;4.85;4.32;;;22.70;65.50;;;;;;4999137;28;20542;-68
2023/07/24 10:31:10;;;;;;;4.15;3.75;;;22.70;65.60;;;;;;4995827;28;20234;-69
2023/07/24 10:33:45;;;;;;;4.72;4.32;;;22.70;65.60;;;;;;5031240;28;20675;-69
2023/07/24 10:36:13;;;;;;;4.60;4.13;;;22.70;65.90;;;;;;4997903;28;20189;-69
2023/07/24 10:38:42;;;;;;;5.00;4.40;;;22.70;65.70;;;;;;4989549;28;20183;-69
2023/07/24 10:41:10;;;;;;;4.97;4.15;;;22.70;65.50;;;;;;5000743;28;20222;-68
2023/07/24 10:43:52;;;;;;;5.70;4.50;;;22.70;65.60;;;;;;4992673;28;20188;-69
2023/07/24 10:46:20;;;;;;;5.18;3.97;;;22.70;65.80;;;;;;4990339;28;20184;-70
2023/07/24 10:48:51;;;;;;;4.22;3.75;;;22.70;66.00;;;;;;5020998;28;20187;-69
2023/07/24 10:51:17;;;;;;;5.68;4.40;;;22.70;66.30;;;;;;4989994;28;20217;-68
2023/07/24 10:53:49;;;;;;;5.57;4.53;;;22.70;66.60;;;;;;5030864;28;20274;-69
2023/07/24 10:56:16;;;;;;;5.03;4.53;;;22.70;66.40;;;;;;5005030;28;20195;-69
2023/07/24 10:58:42;;;;;;;4.85;4.20;;;22.70;66.20;;;;;;5002145;28;20279;-69
2023/07/24 11:01:10;;;;;;;4.55;4.15;;;22.70;67.50;;;;;;4995355;28;20231;-69
2023/07/24 11:03:39;;;;;;;5.47;4.50;;;22.70;67.30;;;;;;4992327;28;20187;-69
2023/07/24 11:06:18;;;;;;;5.60;4.20;;;22.70;66.40;;;;;;4980764;28;20195;-69
2023/07/24 11:08:57;;;;;;;6.10;4.45;;;22.70;66.80;;;;;;5008528;28;20252;-69
2023/07/24 11:11:36;;;;;;;4.55;3.85;;;22.70;66.20;;;;;;4990403;28;20746;-69
2023/07/24 11:14:03;;;;;;;4.55;3.85;;;22.70;66.20;;;;;;4980756;28;20728;-68
2023/07/24 11:16:33;;;;;;;4.60;4.05;;;22.70;66.20;;;;;;5007902;28;20191;-69
2023/07/24 11:18:59;;;;;;;4.38;3.97;;;22.70;66.40;;;;;;4995288;28;20589;-69
2023/07/24 11:21:25;;;;;;;5.03;3.83;;;22.70;66.30;;;;;;4998128;28;20202;-69
2023/07/24 11:23:54;;;;;;;4.90;4.30;;;22.70;66.30;;;;;;5024437;28;20212;-69
2023/07/24 11:26:25;;;;;;;3.95;3.65;;;22.70;66.20;;;;;;4978734;28;20184;-69
2023/07/24 11:28:52;;;;;;;4.75;4.22;;;22.70;66.30;;;;;;4993395;28;20210;-69
2023/07/24 11:31:21;;;;;;;4.35;3.95;;;22.70;66.10;;;;;;5022087;28;20203;-68
2023/07/24 11:33:50;;;;;;;5.05;4.00;;;22.70;66.20;;;;;;5007603;28;20318;-69
2023/07/24 11:36:16;;;;;;;4.85;4.35;;;22.70;66.20;;;;;;5029894;28;20294;-68
2023/07/24 11:38:44;;;;;;;5.45;3.70;;;22.70;66.20;;;;;;4997830;28;20198;-67
2023/07/24 11:41:09;;;;;;;5.07;4.50;;;22.70;66.20;;;;;;5013543;28;20207;-66
2023/07/24 11:43:35;;;;;;;4.78;4.30;;;22.70;66.10;;;;;;4997734;28;20186;-67
2023/07/24 11:46:01;;;;;;;5.63;4.55;;;22.70;66.10;;;;;;5002385;28;20190;-66
2023/07/24 11:48:27;;;;;;;4.82;4.20;;;22.70;66.10;;;;;;4986592;28;20184;-67
2023/07/24 11:50:56;;;;;;;4.85;3.92;;;22.70;66.00;;;;;;5027528;28;20222;-67
2023/07/24 11:53:26;;;;;;;5.43;4.55;;;22.70;66.00;;;;;;4989648;28;20193;-67
2023/07/24 11:55:55;;;;;;;5.28;4.28;;;22.80;66.20;;;;;;5006415;28;20192;-67
2023/07/24 11:58:21;;;;;;;4.45;4.00;;;22.80;66.20;;;;;;5005020;28;20185;-67
2023/07/24 12:00:49;;;;;;;5.07;4.57;;;22.80;66.00;;;;;;5007280;28;20243;-67
2023/07/24 12:03:28;;;;;;;4.47;4.07;;;22.80;66.10;;;;;;4978378;28;20188;-67
2023/07/24 12:05:56;;;;;;;5.00;4.25;;;22.80;66.10;;;;;;4993987;28;20202;-66
2023/07/24 12:08:31;;;;;;;5.60;4.32;;;22.80;66.30;;;;;;5013317;28;20270;-67
2023/07/24 12:10:58;;;;;;;3.72;3.38;;;22.80;65.90;;;;;;5005814;28;20204;-66
2023/07/24 12:13:23;;;;;;;4.60;4.18;;;22.80;65.90;;;;;;5011362;28;20187;-66
2023/07/24 12:15:49;;;;;;;4.90;4.40;;;22.80;65.90;;;;;;5009052;28;20221;-66
2023/07/24 12:18:15;;;;;;;4.30;3.90;;;22.80;65.70;;;;;;4995545;28;20290;-67
2023/07/24 12:20:41;;;;;;;4.75;4.05;;;22.80;65.90;;;;;;5008384;28;20203;-66
2023/07/24 12:23:07;;;;;;;4.70;3.83;;;22.80;66.00;;;;;;5017054;28;20203;-66
2023/07/24 12:25:32;;;;;;;4.78;4.10;;;22.80;66.40;;;;;;5005577;28;20222;-66
2023/07/24 12:27:58;;;;;;;4.55;4.05;;;22.80;66.40;;;;;;4989326;28;20218;-66
2023/07/24 12:30:24;;;;;;;4.47;3.90;;;22.80;66.30;;;;;;5005061;28;20219;-66
2023/07/24 12:32:50;;;;;;;5.20;4.50;;;22.80;66.50;;;;;;5013902;28;20193;-67
2023/07/24 12:35:17;;;;;;;4.90;3.58;;;22.80;66.40;;;;;;4995455;28;20646;-66
2023/07/24 12:37:44;;;;;;;4.75;3.53;;;22.80;66.50;;;;;;4997175;28;20191;-66
2023/07/24 12:40:10;;;;;;;4.45;4.00;;;22.80;66.40;;;;;;4997010;28;20187;-66
2023/07/24 12:42:36;;;;;;;4.72;4.22;;;22.80;66.50;;;;;;5005686;28;20269;-67
2023/07/24 12:45:03;;;;;;;4.20;3.80;;;22.80;66.50;;;;;;5005580;28;20303;-66
2023/07/24 12:47:30;;;;;;;4.40;4.00;;;22.80;66.40;;;;;;4997262;28;20207;-66
2023/07/24 12:49:57;;;;;;;4.25;3.85;;;22.80;66.50;;;;;;4997325;28;20192;-66